Time;durP1;ratioP1;P1;durP2;ratioP2;P2;SDS_P1;SDS_P2;PMS_P1;PMS_P2;Temp;Humidity;BMP_temperature;BMP_pressure;BME280_temperature;BME280_humidity;BME280_pressure;Samples;Min_cycle;Max_cycle;Signal;HPM_P1;HPM_P2
2022/03/26 00:00:23;;;;;;;166.28;51.98;;;;;;;7.80;66.79;101673.44;5011279;55;1141385;-72
2022/03/26 00:05:31;;;;;;;94.37;35.85;;;;;;;7.73;67.08;101665.45;5020625;55;1141028;-72
2022/03/26 00:10:37;;;;;;;68.30;29.97;;;;;;;7.67;67.77;101661.78;5008295;55;1139111;-73
2022/03/26 00:15:43;;;;;;;64.77;26.60;;;;;;;7.63;68.26;101653.66;5018153;57;1138786;-72
2022/03/26 00:20:49;;;;;;;55.77;25.13;;;;;;;7.59;68.74;101656.04;5039568;56;1138829;-73
2022/03/26 00:25:58;;;;;;;45.17;21.40;;;;;;;7.52;69.31;101648.02;5018077;55;1138799;-73
2022/03/26 00:31:04;;;;;;;40.30;20.40;;;;;;;7.54;70.34;101639.13;5049267;55;1140983;-73
2022/03/26 00:36:10;;;;;;;44.57;21.37;;;;;;;7.53;70.59;101624.27;4993334;57;1138835;-72
2022/03/26 00:41:16;;;;;;;37.30;19.13;;;;;;;7.58;70.64;101625.38;4952124;58;1138956;-73
2022/03/26 00:46:22;;;;;;;59.20;27.87;;;;;;;7.63;70.57;101625.55;5008280;57;1138815;-72
2022/03/26 00:51:28;;;;;;;48.15;21.97;;;;;;;7.67;70.02;101617.88;4964762;57;1138965;-73
2022/03/26 00:56:34;;;;;;;54.33;26.50;;;;;;;7.73;69.83;101624.64;4998502;57;1256272;-72
2022/03/26 01:01:39;;;;;;;53.17;23.17;;;;;;;7.75;70.28;101622.33;4970732;57;1138973;-72
2022/03/26 01:06:45;;;;;;;46.03;21.27;;;;;;;7.76;70.08;101616.13;4987295;57;1138633;-72
2022/03/26 01:11:51;;;;;;;45.93;22.67;;;;;;;7.77;70.42;101607.77;4983845;57;1138827;-72
2022/03/26 01:16:56;;;;;;;45.90;18.87;;;;;;;7.75;70.76;101607.84;5008925;57;1138913;-72
2022/03/26 01:22:02;;;;;;;44.27;21.47;;;;;;;7.76;71.80;101595.06;5023098;56;1140796;-72
2022/03/26 01:27:08;;;;;;;44.77;20.60;;;;;;;7.78;71.80;101594.14;4998483;57;1138835;-72
2022/03/26 01:32:14;;;;;;;48.43;22.30;;;;;;;7.80;72.30;101583.04;4977864;56;1138634;-72
2022/03/26 01:37:19;;;;;;;50.28;21.33;;;;;;;7.82;72.23;101582.51;4960165;58;1138726;-74
2022/03/26 01:42:25;;;;;;;47.48;22.73;;;;;;;7.85;72.06;101579.73;4961442;58;1139162;-72
2022/03/26 01:47:31;;;;;;;47.17;22.95;;;;;;;7.86;72.14;101573.07;4970577;58;1140887;-72
2022/03/26 01:52:37;;;;;;;47.65;21.75;;;;;;;7.88;72.22;101568.59;4978551;58;1138910;-72
2022/03/26 01:57:43;;;;;;;48.53;23.40;;;;;;;7.89;72.00;101567.66;4954030;58;1138695;-72
2022/03/26 02:02:49;;;;;;;49.77;21.43;;;;;;;7.88;71.71;101560.69;4958419;57;1138670;-73
2022/03/26 02:07:55;;;;;;;50.73;22.27;;;;;;;7.86;72.61;101556.41;4961126;58;1138891;-72
2022/03/26 02:13:02;;;;;;;42.23;20.50;;;;;;;7.85;73.06;101552.92;4950818;58;1140800;-73
2022/03/26 02:18:09;;;;;;;56.90;25.50;;;;;;;7.85;73.27;101550.30;4967976;57;1138813;-72
2022/03/26 02:23:15;;;;;;;47.57;22.13;;;;;;;7.83;73.18;101541.61;4959979;58;1138911;-72
2022/03/26 02:28:21;;;;;;;46.27;21.60;;;;;;;7.80;73.83;101539.13;4973408;58;1139257;-74
2022/03/26 02:33:27;;;;;;;55.78;25.23;;;;;;;7.80;73.53;101533.86;5022239;56;1140823;-73
2022/03/26 02:38:34;;;;;;;44.38;22.37;;;;;;;7.77;73.85;101537.98;5032221;56;1138733;-72
2022/03/26 02:43:40;;;;;;;45.03;20.97;;;;;;;7.72;73.96;101531.63;5030567;57;1138771;-72
2022/03/26 02:48:45;;;;;;;44.53;21.80;;;;;;;7.68;75.24;101524.80;5038428;57;1138769;-72
2022/03/26 02:53:51;;;;;;;45.63;22.60;;;;;;;7.63;75.09;101511.48;5021476;57;1138805;-73
2022/03/26 02:58:56;;;;;;;56.77;24.72;;;;;;;7.55;75.12;101514.48;5025539;57;1138788;-72
2022/03/26 03:04:03;;;;;;;45.95;22.67;;;;;;;7.49;75.62;101512.14;5041705;57;1141245;-72
2022/03/26 03:09:10;;;;;;;54.50;24.33;;;;;;;7.41;76.04;101511.67;5012449;57;1138850;-72
2022/03/26 03:14:16;;;;;;;51.97;23.20;;;;;;;7.33;76.16;101511.21;5012480;57;1138838;-72
2022/03/26 03:19:21;;;;;;;50.67;23.90;;;;;;;7.29;76.32;101513.12;5024038;57;1140802;-72
2022/03/26 03:24:27;;;;;;;51.97;24.53;;;;;;;7.22;77.03;101509.07;4999896;57;1138963;-72
2022/03/26 03:29:34;;;;;;;56.23;25.03;;;;;;;7.17;77.36;101514.19;5031940;57;1138837;-72
2022/03/26 03:34:39;;;;;;;53.57;23.17;;;;;;;7.15;77.19;101521.30;5009897;57;1138890;-71
2022/03/26 03:39:45;;;;;;;53.87;29.97;;;;;;;7.12;77.76;101510.91;4996762;57;1138813;-73
2022/03/26 03:44:50;;;;;;;114.87;75.93;;;;;;;7.13;77.68;101508.67;4991693;57;1140893;-73
2022/03/26 03:49:56;;;;;;;78.17;47.27;;;;;;;7.09;78.02;101505.78;5003888;57;1140850;-72
2022/03/26 03:55:02;;;;;;;69.47;46.07;;;;;;;7.09;78.90;101490.86;4953583;57;1138708;-72
2022/03/26 04:00:09;;;;;;;56.70;25.13;;;;;;;7.05;79.57;101484.87;5007980;57;1138863;-73
2022/03/26 04:05:17;;;;;;;47.13;19.97;;;;;;;7.04;80.39;101486.27;4963062;57;1138768;-72
2022/03/26 04:10:22;;;;;;;44.63;20.73;;;;;;;7.04;80.00;101474.43;4949839;57;1140830;-73
2022/03/26 04:15:29;;;;;;;65.32;28.23;;;;;;;6.99;79.94;101470.73;5033958;57;1139034;-72
2022/03/26 04:20:36;;;;;;;61.42;27.82;;;;;;;7.02;80.62;101452.17;4968459;57;1141003;-71
2022/03/26 04:25:42;;;;;;;52.20;22.90;;;;;;;7.01;80.99;101445.21;4993794;57;1138775;-72
2022/03/26 04:30:48;;;;;;;54.23;25.70;;;;;;;7.02;81.29;101439.03;4985526;57;1140869;-72
2022/03/26 04:35:54;;;;;;;56.27;24.43;;;;;;;7.01;80.13;101439.95;5013123;56;1138970;-73
2022/03/26 04:40:59;;;;;;;51.90;23.80;;;;;;;6.97;80.75;101446.73;5021852;57;1139083;-73
2022/03/26 04:46:05;;;;;;;57.30;23.47;;;;;;;6.94;80.35;101450.81;5042964;57;1140903;-72
2022/03/26 04:51:11;;;;;;;42.50;23.00;;;;;;;6.88;80.94;101459.84;5002695;57;1138823;-72
2022/03/26 04:56:17;;;;;;;52.23;24.90;;;;;;;6.90;80.50;101465.03;5017374;57;1140835;-73
2022/03/26 05:01:24;;;;;;;46.47;22.63;;;;;;;6.85;81.03;101463.95;5028702;57;1139221;-72
2022/03/26 05:06:30;;;;;;;42.95;24.43;;;;;;;6.84;80.79;101466.19;5020178;57;1140933;-72
2022/03/26 05:11:37;;;;;;;50.03;24.03;;;;;;;6.81;80.89;101470.27;4998796;56;1138785;-72
2022/03/26 05:16:43;;;;;;;38.87;19.77;;;;;;;6.78;81.39;101456.41;5009380;56;1138984;-72
2022/03/26 05:21:49;;;;;;;41.28;20.30;;;;;;;6.79;81.24;101462.91;5061947;57;1140883;-73
2022/03/26 05:26:55;;;;;;;39.03;20.97;;;;;;;6.79;81.87;101457.66;5014132;57;1138770;-73
2022/03/26 05:32:00;;;;;;;56.93;23.20;;;;;;;6.86;82.12;101459.09;4969114;56;1140920;-74
2022/03/26 05:37:07;;;;;;;44.80;19.93;;;;;;;6.94;81.91;101448.19;4959084;57;1139001;-73
2022/03/26 05:42:13;;;;;;;55.43;22.77;;;;;;;7.05;82.68;101449.38;5003715;56;1140915;-72
2022/03/26 05:47:19;;;;;;;48.97;20.43;;;;;;;7.21;82.30;101452.58;5028814;57;1140942;-72
2022/03/26 05:52:26;;;;;;;48.10;20.47;;;;;;;7.36;82.40;101439.52;4986860;57;1138938;-73
2022/03/26 05:57:33;;;;;;;42.23;19.73;;;;;;;7.56;81.92;101434.58;5035663;57;1141074;-72
2022/03/26 06:02:38;;;;;;;37.23;18.95;;;;;;;7.78;81.45;101439.63;4983623;56;1141084;-73
2022/03/26 06:07:44;;;;;;;35.20;14.47;;;;;;;8.05;80.83;101434.23;5008949;56;1140758;-73
2022/03/26 06:12:50;;;;;;;35.60;15.63;;;;;;;8.30;80.40;101421.91;5032245;56;1141033;-72
2022/03/26 06:17:55;;;;;;;33.60;14.17;;;;;;;8.50;79.58;101418.24;5031096;55;1241864;-73
2022/03/26 06:23:02;;;;;;;27.57;14.33;;;;;;;8.64;79.34;101417.02;4993590;56;1140906;-73
2022/03/26 06:28:08;;;;;;;29.63;11.93;;;;;;;8.80;79.07;101423.61;5012199;57;1140994;-72
2022/03/26 06:33:15;;;;;;;26.40;14.57;;;;;;;9.00;78.00;101419.86;5007235;56;1140696;-71
2022/03/26 06:38:21;;;;;;;31.68;15.98;;;;;;;9.10;77.95;101427.16;5011771;56;1140637;-73
2022/03/26 06:43:28;;;;;;;34.33;14.17;;;;;;;9.26;77.08;101415.72;4990875;56;1150309;-71
2022/03/26 06:48:34;;;;;;;37.32;16.24;;;;;;;9.37;76.84;101427.36;4999433;57;1140969;-71
2022/03/26 06:53:40;;;;;;;35.70;16.15;;;;;;;9.53;76.69;101420.70;5014552;57;1141025;-72
2022/03/26 06:58:46;;;;;;;24.20;10.60;;;;;;;9.60;76.38;101408.86;5015162;57;1140838;-71
2022/03/26 07:03:52;;;;;;;28.47;14.60;;;;;;;9.61;76.31;101407.92;5011376;56;1141052;-71
2022/03/26 07:09:00;;;;;;;34.27;14.67;;;;;;;9.78;76.77;101410.84;5033468;57;1141076;-71
2022/03/26 07:14:05;;;;;;;26.60;13.20;;;;;;;10.01;75.65;101398.42;5007441;57;1140901;-72
2022/03/26 07:19:11;;;;;;;28.17;14.60;;;;;;;10.24;75.19;101399.66;5013568;57;1142970;-72
2022/03/26 07:24:17;;;;;;;29.87;12.37;;;;;;;10.44;73.61;101407.22;5025546;57;1142800;-73
2022/03/26 07:29:22;;;;;;;29.67;15.03;;;;;;;10.47;73.61;101397.77;5033707;56;1142747;-72
2022/03/26 07:34:28;;;;;;;30.20;14.40;;;;;;;10.54;74.07;101399.57;4964578;56;1147592;-72
2022/03/26 07:39:34;;;;;;;20.45;11.95;;;;;;;10.63;73.31;101406.91;5013527;56;1143257;-72
2022/03/26 07:44:40;;;;;;;23.00;12.20;;;;;;;10.76;73.19;101413.11;4969962;57;1142995;-72
2022/03/26 07:49:46;;;;;;;30.47;11.30;;;;;;;10.83;73.79;101412.26;5009631;56;1142946;-72
2022/03/26 07:54:52;;;;;;;25.43;11.45;;;;;;;10.87;74.39;101411.94;4986765;56;1142877;-72
2022/03/26 07:59:58;;;;;;;33.30;15.23;;;;;;;10.82;74.59;101413.20;5005072;56;1142963;-72
2022/03/26 08:05:04;;;;;;;35.28;16.35;;;;;;;10.75;74.62;101406.59;4973459;56;1143085;-73
2022/03/26 08:10:10;;;;;;;38.63;15.23;;;;;;;10.71;75.43;101401.96;4965528;56;1143058;-72
2022/03/26 08:15:16;;;;;;;24.20;13.53;;;;;;;10.66;75.77;101413.80;5032221;57;1143040;-72
2022/03/26 08:20:22;;;;;;;22.37;12.73;;;;;;;10.71;76.44;101409.90;5026219;56;1143117;-72
2022/03/26 08:30:51;;;;;;;28.15;15.93;;;;;;;10.88;77.68;101400.41;4998232;56;1143320;-72
2022/03/26 08:35:57;;;;;;;20.27;12.20;;;;;;;11.07;77.47;101401.86;5019819;57;1142850;-71
2022/03/26 08:41:04;;;;;;;23.73;12.87;;;;;;;11.12;78.09;101400.63;4920992;57;1143059;-72
2022/03/26 08:46:10;;;;;;;26.03;15.50;;;;;;;11.10;77.78;101409.61;4888683;57;1142867;-73
2022/03/26 08:51:16;;;;;;;28.63;15.23;;;;;;;11.07;77.30;101409.33;4893399;57;1143038;-73
2022/03/26 08:56:22;;;;;;;32.17;13.47;;;;;;;11.13;78.17;101416.87;4921154;57;1143117;-72
2022/03/26 09:01:28;;;;;;;28.30;15.00;;;;;;;11.09;77.70;101413.20;4885720;57;1143253;-73
2022/03/26 09:06:33;;;;;;;29.20;14.03;;;;;;;11.02;77.89;101429.95;4995241;56;1142955;-72
2022/03/26 09:11:39;;;;;;;27.73;16.00;;;;;;;11.00;78.48;101429.70;5014471;56;1143075;-72
2022/03/26 09:16:45;;;;;;;27.50;15.17;;;;;;;11.03;78.31;101433.44;5013443;56;1143113;-73
2022/03/26 09:21:51;;;;;;;26.17;13.83;;;;;;;11.01;78.20;101435.34;5054102;56;1143305;-73
2022/03/26 09:26:57;;;;;;;32.23;16.70;;;;;;;10.93;78.68;101451.73;4999245;56;1143084;-72
2022/03/26 09:32:03;;;;;;;27.60;16.03;;;;;;;10.88;78.36;101458.62;5015972;57;1143182;-73
2022/03/26 09:37:10;;;;;;;31.10;17.67;;;;;;;10.85;78.88;101454.00;5033822;56;1143003;-71
2022/03/26 09:42:16;;;;;;;29.40;15.85;;;;;;;10.80;78.81;101449.50;5003447;56;1143141;-71
2022/03/26 09:47:23;;;;;;;38.43;18.17;;;;;;;10.78;79.21;101457.53;4967479;56;1143128;-71
2022/03/26 09:52:30;;;;;;;51.27;24.43;;;;;;;10.83;79.01;101451.48;5048169;57;1142892;-72
2022/03/26 09:57:36;;;;;;;70.65;35.00;;;;;;;10.84;79.02;101454.50;5018972;57;1143015;-72
2022/03/26 10:02:42;;;;;;;36.08;18.80;;;;;;;10.83;79.10;101453.27;5011897;57;1143067;-72
2022/03/26 10:07:49;;;;;;;73.00;38.87;;;;;;;10.81;79.09;101457.34;4980859;57;1143077;-72
2022/03/26 10:12:55;;;;;;;52.40;30.27;;;;;;;10.79;79.14;101459.23;5030433;57;1143162;-73
2022/03/26 10:18:12;;;;;;;32.17;19.27;;;;;;;10.77;78.78;101475.67;5016700;57;1143063;-73
2022/03/26 10:23:28;;;;;;;61.47;35.40;;;;;;;10.67;79.19;101479.85;5027655;57;1143175;-73
2022/03/26 10:28:34;;;;;;;33.05;19.02;;;;;;;10.60;78.85;101477.20;4998404;56;1143100;-72
2022/03/26 10:33:40;;;;;;;43.35;24.12;;;;;;;10.57;79.23;101490.14;5031223;56;1143099;-72
2022/03/26 10:38:46;;;;;;;30.45;17.75;;;;;;;10.53;78.94;101491.30;5010141;57;1142927;-72
2022/03/26 10:44:08;;;;;;;46.07;27.37;;;;;;;10.46;79.42;101480.70;5004455;57;1143045;-73
2022/03/26 10:49:17;;;;;;;35.40;20.27;;;;;;;10.39;78.84;101495.23;4986971;56;1142843;-72
2022/03/26 10:54:32;;;;;;;33.90;19.77;;;;;;;10.37;79.42;101498.47;4984729;57;1142903;-72
2022/03/26 10:59:38;;;;;;;44.48;23.07;;;;;;;10.26;80.31;101506.66;5004750;57;1143896;-72
2022/03/26 11:04:44;;;;;;;53.68;25.92;;;;;;;10.23;79.93;101509.51;5020091;55;1142929;-73
2022/03/26 11:09:51;;;;;;;42.67;22.90;;;;;;;10.19;80.03;101514.97;4995713;56;1143030;-73
2022/03/26 11:14:58;;;;;;;39.17;20.30;;;;;;;10.16;81.12;101515.59;4997817;57;1142865;-73
2022/03/26 11:20:17;;;;;;;50.20;28.73;;;;;;;10.15;80.50;101530.59;5038999;57;1142907;-73
2022/03/26 11:25:52;;;;;;;38.57;21.33;;;;;;;10.13;80.36;101538.23;4997635;57;1142888;-73
2022/03/26 11:31:11;;;;;;;47.97;26.00;;;;;;;10.03;81.36;101542.37;5012175;57;1142880;-73
2022/03/26 11:36:19;;;;;;;39.17;21.37;;;;;;;9.95;81.04;101551.20;5000988;56;1257783;-73
2022/03/26 11:41:35;;;;;;;30.62;18.30;;;;;;;9.86;82.75;101552.14;5001000;56;1140817;-74
2022/03/26 11:52:25;;;;;;;28.77;14.30;;;;;;;9.74;82.79;101558.14;4993265;57;1140879;-73
2022/03/26 11:57:31;;;;;;;65.17;38.20;;;;;;;9.71;83.09;101562.27;4999645;56;1140861;-74
2022/03/26 12:02:37;;;;;;;24.63;10.20;;;;;;;9.59;84.42;101550.23;5019649;56;1140877;-73
2022/03/26 12:07:43;;;;;;;54.98;35.80;;;;;;;9.59;84.42;101550.23;5015484;56;1140933;-73
2022/03/26 12:13:05;;;;;;;29.00;15.90;;;;;;;9.62;83.49;101568.56;5023184;57;1140877;-73
2022/03/26 12:18:16;;;;;;;77.83;41.77;;;;;;;9.60;84.12;101569.11;5031461;56;1140899;-73
2022/03/26 12:23:27;;;;;;;33.47;16.30;;;;;;;9.53;86.08;101576.52;5031898;56;1140766;-73
2022/03/26 12:28:37;;;;;;;155.53;75.73;;;;;;;9.50;85.38;101578.00;4993186;56;1141190;-73
2022/03/26 12:33:46;;;;;;;124.00;58.68;;;;;;;9.50;85.54;101578.86;4969428;57;1143021;-72
2022/03/26 12:38:56;;;;;;;123.77;52.20;;;;;;;9.50;86.17;101584.14;5005947;57;1143065;-73
2022/03/26 12:44:03;;;;;;;98.87;48.90;;;;;;;9.46;87.37;101580.45;5001123;57;1143143;-72
2022/03/26 12:49:20;;;;;;;39.77;17.77;;;;;;;9.47;87.02;101570.28;5010846;57;1140994;-72
2022/03/26 12:54:29;;;;;;;51.90;21.33;;;;;;;9.54;87.52;101574.26;4966503;57;1140786;-72
2022/03/26 12:59:35;;;;;;;29.53;14.57;;;;;;;9.57;89.58;101571.45;5040285;55;1140919;-71
2022/03/26 13:04:41;;;;;;;72.10;32.98;;;;;;;9.57;89.60;101576.73;5021926;56;1140857;-72
2022/03/26 13:09:47;;;;;;;34.38;15.13;;;;;;;9.66;89.35;101575.34;4934312;57;1140951;-72
2022/03/26 13:14:52;;;;;;;40.03;19.20;;;;;;;9.77;89.26;101577.78;5025832;57;1140746;-72
2022/03/26 13:19:59;;;;;;;39.27;21.03;;;;;;;9.84;88.66;101580.91;5011106;57;1140856;-71
2022/03/26 13:25:06;;;;;;;29.30;15.60;;;;;;;9.78;89.35;101586.53;4996682;57;1140924;-72
2022/03/26 13:30:13;;;;;;;65.10;33.93;;;;;;;9.70;89.46;101583.02;5005719;56;1140757;-72
2022/03/26 13:35:18;;;;;;;41.00;21.90;;;;;;;9.69;88.90;101585.74;5000846;56;1140809;-72
2022/03/26 13:40:33;;;;;;;41.63;20.90;;;;;;;9.71;88.91;101591.80;4980661;56;1140740;-72
2022/03/26 13:45:42;;;;;;;35.17;17.67;;;;;;;9.65;89.32;101592.98;5058705;56;1140706;-72
2022/03/26 13:50:48;;;;;;;32.60;14.37;;;;;;;9.61;89.45;101591.48;5046761;57;1140826;-72
2022/03/26 13:55:55;;;;;;;47.10;24.27;;;;;;;9.61;89.33;101591.95;4992045;57;1140815;-72
2022/03/26 14:01:04;;;;;;;82.67;41.30;;;;;;;9.56;89.27;101588.23;5002007;57;1140903;-73
2022/03/26 14:06:10;;;;;;;51.53;23.50;;;;;;;9.62;89.11;101601.58;5017586;57;1140967;-72
2022/03/26 14:11:17;;;;;;;88.70;42.35;;;;;;;9.63;89.31;101601.45;4965437;57;1140937;-72
2022/03/26 14:16:23;;;;;;;48.60;28.13;;;;;;;9.60;89.30;101595.05;5001225;56;1140817;-72
2022/03/26 14:21:28;;;;;;;36.90;19.60;;;;;;;9.60;89.23;101612.69;4983937;56;1141042;-72
2022/03/26 14:26:34;;;;;;;34.57;18.70;;;;;;;9.56;89.38;101609.83;4986185;57;1140985;-72
2022/03/26 14:31:40;;;;;;;47.43;20.00;;;;;;;9.57;89.85;101608.89;5041135;56;1140941;-71
2022/03/26 14:36:46;;;;;;;146.07;57.93;;;;;;;9.68;90.00;101609.14;5009252;56;1141086;-71
2022/03/26 14:41:53;;;;;;;81.70;37.23;;;;;;;9.73;89.38;101610.59;4982797;56;1143191;-72
2022/03/26 14:47:01;;;;;;;33.37;18.93;;;;;;;9.84;89.49;101620.53;5026814;57;1141051;-71
2022/03/26 14:52:07;;;;;;;160.47;73.20;;;;;;;9.81;89.09;101622.88;4969472;56;1140950;-72
2022/03/26 14:57:13;;;;;;;73.23;32.90;;;;;;;9.78;88.39;101628.80;5015441;57;1143132;-72
2022/03/26 15:02:20;;;;;;;46.73;21.77;;;;;;;9.77;88.69;101634.58;5089745;56;1140816;-72
2022/03/26 15:07:27;;;;;;;91.33;41.93;;;;;;;9.72;88.38;101631.34;5115909;56;1140746;-72
2022/03/26 15:12:35;;;;;;;49.55;24.47;;;;;;;9.72;88.16;101641.05;4975939;55;1150499;-73
2022/03/26 15:17:42;;;;;;;58.78;26.07;;;;;;;9.74;88.32;101644.00;4900818;57;1140951;-72
2022/03/26 15:22:48;;;;;;;66.07;34.30;;;;;;;9.76;87.93;101644.77;4900677;57;1141089;-72
2022/03/26 15:27:54;;;;;;;102.57;53.30;;;;;;;9.78;87.77;101640.22;4898494;57;1140782;-72
2022/03/26 15:33:00;;;;;;;157.73;75.33;;;;;;;9.84;87.62;101649.13;5000003;56;1142964;-72
2022/03/26 15:38:05;;;;;;;76.47;40.50;;;;;;;9.86;87.39;101646.41;5039755;56;1142972;-71
2022/03/26 15:43:13;;;;;;;142.47;79.47;;;;;;;9.94;86.94;101652.09;5012176;56;1140955;-71
2022/03/26 15:48:19;;;;;;;97.93;55.37;;;;;;;9.94;86.54;101656.52;5010179;56;1142986;-72
2022/03/26 15:53:24;;;;;;;56.67;30.87;;;;;;;9.98;85.16;101662.03;4996870;56;1140772;-71
2022/03/26 15:58:31;;;;;;;48.23;27.00;;;;;;;10.00;84.79;101671.58;5047700;57;1140833;-71
2022/03/26 16:03:36;;;;;;;34.93;17.83;;;;;;;9.98;82.92;101683.17;5030539;55;1143138;-71
2022/03/26 16:08:42;;;;;;;15.43;9.45;;;;;;;9.99;81.97;101680.91;5037679;56;1140944;-70
2022/03/26 16:13:49;;;;;;;16.10;6.62;;;;;;;9.97;80.79;101691.56;4977276;55;1138798;-71
2022/03/26 16:18:55;;;;;;;12.57;6.93;;;;;;;9.92;79.81;101703.36;4949517;58;1138907;-71
2022/03/26 16:24:01;;;;;;;11.93;6.33;;;;;;;9.88;79.47;101711.45;4953558;56;1138937;-71
2022/03/26 16:29:08;;;;;;;17.37;6.80;;;;;;;9.81;79.36;101729.03;5003040;56;1138807;-71
2022/03/26 16:34:14;;;;;;;16.73;7.93;;;;;;;9.78;79.68;101727.41;5035816;56;1138850;-70
2022/03/26 16:39:20;;;;;;;22.17;8.43;;;;;;;9.82;79.54;101730.73;5101190;56;1138852;-71
2022/03/26 16:44:26;;;;;;;18.13;7.50;;;;;;;9.81;79.53;101735.17;5026954;57;1138843;-70
2022/03/26 16:49:31;;;;;;;16.43;7.23;;;;;;;9.76;79.49;101738.55;5040153;57;1139030;-71
2022/03/26 16:54:37;;;;;;;15.47;8.77;;;;;;;9.76;79.33;101741.66;4993422;56;1138862;-71
2022/03/26 16:59:43;;;;;;;16.67;9.00;;;;;;;9.68;79.44;101740.74;4997681;57;1138896;-72
2022/03/26 17:04:49;;;;;;;51.42;34.83;;;;;;;9.67;79.48;101746.11;5015118;56;1138885;-70
2022/03/26 17:09:54;;;;;;;48.30;27.37;;;;;;;9.66;79.29;101748.36;5000992;55;1140976;-72
2022/03/26 17:15:00;;;;;;;59.90;38.13;;;;;;;9.62;79.11;101756.95;5003004;57;1140821;-72
2022/03/26 17:20:08;;;;;;;66.82;29.07;;;;;;;9.53;79.09;101765.34;5043375;56;1141149;-71
2022/03/26 17:25:19;;;;;;;275.97;103.97;;;;;;;9.42;79.16;101765.92;5093046;56;1140685;-72
2022/03/26 17:30:22;;;;;;;248.10;100.93;;;;;;;9.34;79.28;101769.41;5032000;56;1144875;-71
2022/03/26 17:35:28;;;;;;;295.33;129.68;;;;;;;9.25;79.24;101771.23;5000449;56;1144914;-70
2022/03/26 17:40:34;;;;;;;180.57;91.07;;;;;;;9.18;79.28;101780.39;4959962;56;1144838;-70
2022/03/26 17:45:40;;;;;;;179.95;89.55;;;;;;;9.09;79.25;101785.69;5047093;56;1142966;-73
2022/03/26 17:50:46;;;;;;;219.75;105.67;;;;;;;9.02;79.40;101785.59;5031577;55;1142844;-73
2022/03/26 17:55:52;;;;;;;323.52;164.47;;;;;;;8.95;79.59;101797.88;4973591;56;1145691;-72
2022/03/26 18:00:57;;;;;;;160.97;88.20;;;;;;;8.86;79.75;101812.86;5015138;56;1144910;-72
2022/03/26 18:06:03;;;;;;;170.20;97.37;;;;;;;8.81;79.81;101818.35;5004212;57;1143080;-72
2022/03/26 18:11:09;;;;;;;69.13;40.80;;;;;;;8.77;79.96;101825.55;5024097;57;1143101;-72
2022/03/26 18:16:15;;;;;;;310.43;146.47;;;;;;;8.68;80.00;101826.02;5014877;56;1140727;-71
2022/03/26 18:21:20;;;;;;;259.30;119.40;;;;;;;8.63;80.23;101839.88;5020025;55;1145050;-70
2022/03/26 18:26:26;;;;;;;181.17;88.80;;;;;;;8.61;80.41;101852.75;5013322;56;1144969;-70
2022/03/26 18:31:32;;;;;;;124.97;66.70;;;;;;;8.53;80.26;101861.50;5022583;57;1143234;-71
2022/03/26 18:36:38;;;;;;;84.20;44.48;;;;;;;8.33;80.79;101860.66;5047288;55;1142805;-71
2022/03/26 18:41:44;;;;;;;129.38;71.30;;;;;;;8.22;81.85;101865.55;4998677;56;1141218;-70
2022/03/26 18:46:50;;;;;;;95.60;52.80;;;;;;;8.18;81.17;101875.83;4920344;57;1143153;-70
2022/03/26 18:51:56;;;;;;;96.78;52.20;;;;;;;8.13;81.46;101881.30;4862793;57;1260487;-71
2022/03/26 18:57:02;;;;;;;111.20;62.97;;;;;;;8.12;81.26;101890.13;4908242;58;1141203;-70
2022/03/26 19:02:13;;;;;;;40.03;23.67;;;;;;;8.07;81.14;101896.09;4922868;58;1143107;-70
2022/03/26 19:07:17;;;;;;;55.47;35.90;;;;;;;8.08;80.92;101896.95;4962052;57;1140927;-70
2022/03/26 19:12:26;;;;;;;47.63;27.17;;;;;;;8.04;80.88;101908.08;4960102;58;1140739;-70
2022/03/26 19:17:34;;;;;;;55.97;31.67;;;;;;;7.95;80.97;101913.73;4957112;56;1141087;-70
2022/03/26 19:22:39;;;;;;;42.23;21.20;;;;;;;7.87;81.04;101911.06;4948168;57;1141029;-71
2022/03/26 19:27:45;;;;;;;204.82;122.95;;;;;;;7.85;81.13;101915.54;4930153;58;1141085;-70
2022/03/26 19:32:51;;;;;;;50.25;28.00;;;;;;;7.85;81.24;101920.81;4938675;57;1145400;-71
2022/03/26 19:37:58;;;;;;;43.73;23.50;;;;;;;7.76;81.26;101926.89;4928601;57;1140972;-71
2022/03/26 19:43:05;;;;;;;50.73;26.60;;;;;;;7.73;81.19;101934.06;4952761;57;1139109;-70
2022/03/26 19:48:10;;;;;;;87.27;44.67;;;;;;;7.71;80.95;101948.60;4924482;57;1140831;-70
2022/03/26 19:53:19;;;;;;;191.33;100.33;;;;;;;7.73;80.71;101955.13;4948416;57;1141058;-71
2022/03/26 19:58:25;;;;;;;140.33;66.90;;;;;;;7.78;81.08;101959.75;4966132;57;1145087;-70
2022/03/26 20:03:31;;;;;;;104.83;48.17;;;;;;;7.80;80.87;101963.14;4973875;57;1142968;-70
2022/03/26 20:08:37;;;;;;;63.13;24.23;;;;;;;7.80;81.03;101978.09;4987863;57;1143036;-69
2022/03/26 20:13:45;;;;;;;41.07;17.10;;;;;;;7.74;80.42;101989.76;4973162;58;1139067;-71
2022/03/26 20:18:51;;;;;;;20.62;10.15;;;;;;;7.59;80.23;102022.00;4982406;57;1138831;-70
2022/03/26 20:23:56;;;;;;;13.55;6.87;;;;;;;7.38;80.19;102025.89;4954978;58;1141071;-71
2022/03/26 20:29:01;;;;;;;17.50;7.90;;;;;;;7.30;80.68;102042.46;4973766;57;1138898;-69
2022/03/26 20:34:07;;;;;;;29.43;13.10;;;;;;;7.28;81.05;102046.92;4978779;57;1138657;-70
2022/03/26 20:39:13;;;;;;;28.93;11.20;;;;;;;7.27;81.36;102064.09;4969782;57;1141002;-70
2022/03/26 20:44:19;;;;;;;81.73;35.93;;;;;;;7.21;80.04;102079.64;4955418;57;1138759;-71
2022/03/26 20:49:25;;;;;;;111.40;47.47;;;;;;;7.11;79.67;102084.88;4941264;57;1138810;-70
2022/03/26 20:54:31;;;;;;;115.35;54.98;;;;;;;7.05;79.15;102095.16;4948534;58;1141051;-70
2022/03/26 20:59:36;;;;;;;87.57;38.67;;;;;;;6.98;79.10;102103.35;4976526;57;1140962;-70
2022/03/26 21:04:42;;;;;;;57.30;24.90;;;;;;;6.90;78.67;102112.83;4966843;57;1146766;-70
2022/03/26 21:09:49;;;;;;;46.45;19.02;;;;;;;6.83;78.29;102115.30;4967866;58;1138867;-70
2022/03/26 21:14:55;;;;;;;54.90;21.68;;;;;;;6.73;77.67;102125.73;4991604;58;1138789;-70
2022/03/26 21:20:00;;;;;;;51.50;23.03;;;;;;;6.66;77.36;102136.94;4986852;58;1138987;-70
2022/03/26 21:30:30;;;;;;;74.20;28.97;;;;;;;6.49;76.32;102145.01;4978853;57;1138907;-70
2022/03/26 21:35:36;;;;;;;72.33;23.37;;;;;;;6.36;75.59;102164.28;4973802;57;1138909;-70
2022/03/26 21:40:45;;;;;;;49.23;16.37;;;;;;;6.19;75.08;102160.91;4911396;58;1138882;-71
2022/03/26 21:45:52;;;;;;;56.98;18.32;;;;;;;6.07;74.87;102161.77;4893257;57;1139095;-70
2022/03/26 21:50:57;;;;;;;75.42;23.77;;;;;;;5.95;74.72;102174.85;4872757;58;1138978;-71
2022/03/26 21:56:03;;;;;;;47.80;17.70;;;;;;;5.84;74.42;102181.70;4959632;57;1138759;-70
2022/03/26 22:01:09;;;;;;;38.83;14.43;;;;;;;5.73;74.40;102181.19;4963979;57;1138638;-70
2022/03/26 22:06:15;;;;;;;30.67;11.83;;;;;;;5.67;74.32;102191.86;4964701;57;1138691;-70
2022/03/26 22:11:26;;;;;;;21.10;8.40;;;;;;;5.58;74.18;102192.15;4963592;57;1138646;-70
2022/03/26 22:16:28;;;;;;;27.60;10.37;;;;;;;5.51;74.19;102193.22;4987749;56;1136540;-70
2022/03/26 22:21:34;;;;;;;33.40;11.80;;;;;;;5.39;73.75;102201.02;4941903;56;1138719;-70
2022/03/26 22:26:41;;;;;;;65.63;24.10;;;;;;;5.28;73.62;102201.33;4949336;57;1138921;-71
2022/03/26 22:31:52;;;;;;;62.67;23.07;;;;;;;5.19;73.61;102200.75;4934814;57;1138922;-71
2022/03/26 22:36:54;;;;;;;69.00;27.65;;;;;;;5.02;73.19;102206.46;4937894;57;1138605;-70
2022/03/26 22:42:00;;;;;;;97.97;37.75;;;;;;;5.00;73.34;102210.88;4941498;57;1138896;-71
2022/03/26 22:47:06;;;;;;;91.43;37.77;;;;;;;4.99;73.01;102213.09;4961245;57;1138595;-70
2022/03/26 22:52:12;;;;;;;88.53;32.90;;;;;;;4.91;72.81;102206.73;4966065;57;1138713;-70
2022/03/26 22:57:17;;;;;;;123.73;43.83;;;;;;;4.72;72.36;102225.19;4965090;57;1138958;-70
2022/03/26 23:02:23;;;;;;;148.20;59.27;;;;;;;4.52;72.56;102223.52;4968594;58;1141036;-70
2022/03/26 23:07:30;;;;;;;140.80;57.73;;;;;;;4.35;72.55;102225.24;4987232;58;1140737;-71